Sakura — JG5711 — position and weather

sailwx.info

Track history (hours):
 
Tides and Currents Weather Stations Pressure Air Temp Water Temp Dewpoint Dewpoint Depression Visibility Wind Speed Wind Dir Waves Ship Positions

Sakura

Last reported at 2017-Mar-29 01:33 UTC. Time now 2017-Mar-29 01:34 UTC.
Position N 35°23' E 139°41'.

Length 32 m; draft 3.6 m.

Type: Tug. MMSI: 431101178.

Date/timePositionNaut miles runAvg speedWind from/ knotsBaromVisibWave heightAir tempDewpointWater temp
2017-Mar-29 01:33N 35°23' E 139°41'1 0.5
2017-Mar-29 00:33N 35°23' E 139°41'0 0.0
2017-Mar-28 23:33N 35°23' E 139°41'1 1.3
2017-Mar-28 22:33N 35°24' E 139°41'3 3.3
2017-Mar-28 21:33N 35°27' E 139°40'2 1.5
2017-Mar-28 20:33N 35°27' E 139°39'0 0.0
2017-Mar-28 08:28N 35°27' E 139°39'8 8.3
2017-Mar-28 07:33N 35°30' E 139°47'6 6.4
2017-Mar-28 06:33N 35°28' E 139°40'1 1.1
2017-Mar-28 05:33N 35°27' E 139°39'0 0.0
2017-Mar-28 04:33N 35°27' E 139°39'0 0.0
2017-Mar-28 03:33N 35°27' E 139°39'0 0.0
2017-Mar-28 02:33N 35°27' E 139°39'0 0.0
2017-Mar-28 01:33N 35°27' E 139°39'4 4.1
2017-Mar-28 00:33N 35°23' E 139°40'2 2.3
2017-Mar-27 23:33N 35°24' E 139°38'4 3.8
2017-Mar-27 22:33N 35°25' E 139°42'1 1.0
2017-Mar-27 21:33N 35°25' E 139°43'4 3.9
2017-Mar-27 20:33N 35°27' E 139°39'0 0.0
2017-Mar-27 19:33N 35°27' E 139°39'3 0.2
2017-Mar-27 07:34N 35°28' E 139°42'1 1.3
2017-Mar-27 06:34N 35°27' E 139°41'1 0.7
2017-Mar-27 05:34N 35°27' E 139°42'1 0.9
2017-Mar-27 04:33N 35°28' E 139°42'2 1.7
2017-Mar-27 03:33N 35°27' E 139°40'0 0.1
2017-Mar-27 02:34N 35°28' E 139°41'0 0.0
2017-Mar-27 01:33N 35°28' E 139°41'0 0.0
2017-Mar-27 00:34N 35°28' E 139°41'6 6.1
2017-Mar-26 23:33N 35°30' E 139°47'7 6.9
2017-Mar-26 22:33N 35°27' E 139°40'1 0.8
2017-Mar-26 21:33N 35°27' E 139°39'0 0.0
2017-Mar-25 23:33N 35°27' E 139°39'0 0.0
2017-Mar-25 22:33N 35°27' E 139°39'0 0.0
2017-Mar-25 21:33N 35°27' E 139°39'0 0.0
2017-Mar-25 20:33N 35°27' E 139°39'3 2.8
2017-Mar-25 19:33N 35°26' E 139°42'2 2.0
2017-Mar-25 18:33N 35°24' E 139°41'0 0.2
2017-Mar-25 17:33N 35°24' E 139°41'1 0.7
2017-Mar-25 16:33N 35°24' E 139°40'2 1.9
2017-Mar-25 15:33N 35°22' E 139°42'1 1.1
2017-Mar-25 14:33N 35°23' E 139°41'0 0.0
2017-Mar-25 13:33N 35°23' E 139°41'0 0.0
2017-Mar-25 12:33N 35°23' E 139°41'4 3.8
2017-Mar-25 11:33N 35°27' E 139°41'1 1.0
2017-Mar-25 10:33N 35°28' E 139°41'1 0.9
2017-Mar-25 09:33N 35°27' E 139°40'0 0.1
2017-Mar-25 08:33N 35°27' E 139°40'1 1.2
2017-Mar-25 07:33N 35°27' E 139°42'1 1.1
2017-Mar-25 06:33N 35°26' E 139°41'2 2.1
2017-Mar-25 05:33N 35°27' E 139°39'0 0.0
2017-Mar-25 04:33N 35°27' E 139°39'0 0.0
2017-Mar-25 03:33N 35°27' E 139°39'0 0.0
2017-Mar-25 02:33N 35°27' E 139°39'0 0.0
2017-Mar-25 01:33N 35°27' E 139°39'0 0.0
2017-Mar-25 00:33N 35°27' E 139°39'0 0.0
2017-Mar-24 23:33N 35°27' E 139°39'0 0.0
2017-Mar-24 22:33N 35°27' E 139°39'0 0.0
2017-Mar-24 21:33N 35°27' E 139°39'0 0.0
2017-Mar-24 07:28N 35°27' E 139°39'7 7.7
2017-Mar-24 06:33N 35°31' E 139°46'1 1.1
2017-Mar-24 05:33N 35°30' E 139°45'2 1.7
2017-Mar-24 04:33N 35°29' E 139°45'2 1.5
2017-Mar-24 03:33N 35°29' E 139°47'0 0.0
2017-Mar-24 02:33N 35°29' E 139°47'0 0.0
2017-Mar-24 01:33N 35°29' E 139°47'0 0.0
2017-Mar-24 00:33N 35°29' E 139°47'2 1.9
2017-Mar-23 23:33N 35°31' E 139°46'4 4.3
2017-Mar-23 22:33N 35°28' E 139°42'3 3.0
2017-Mar-23 21:33N 35°27' E 139°39'0 0.0
2017-Mar-23 07:10N 35°27' E 139°39'0 0.0
2017-Mar-23 06:33N 35°27' E 139°39'1 0.7
2017-Mar-23 05:33N 35°27' E 139°39'5 5.1
2017-Mar-23 04:33N 35°30' E 139°44'1 0.8
2017-Mar-23 03:33N 35°30' E 139°45'3 2.9
2017-Mar-23 02:33N 35°28' E 139°44'0 0.2
2017-Mar-23 01:33N 35°28' E 139°44'0 0.0
2017-Mar-23 00:33N 35°28' E 139°44'0 0.0
2017-Mar-22 23:33N 35°28' E 139°44'3 2.6
2017-Mar-22 22:33N 35°29' E 139°47'2 2.0
2017-Mar-22 21:33N 35°30' E 139°44'5 5.2
2017-Mar-22 20:33N 35°27' E 139°39'0 0.0
2017-Mar-22 11:03N 35°27' E 139°39'3 5.3
2017-Mar-22 10:33N 35°26' E 139°41'0 0.4
2017-Mar-22 09:33N 35°26' E 139°42'0 0.0
2017-Mar-22 08:33N 35°26' E 139°41'0 0.0
2017-Mar-22 07:33N 35°26' E 139°41'1 0.8
2017-Mar-22 06:33N 35°26' E 139°41'2 2.1
2017-Mar-22 05:33N 35°27' E 139°39'0 0.0
2017-Mar-22 04:33N 35°27' E 139°39'0 0.0
2017-Mar-22 03:33N 35°27' E 139°39'0 0.0
2017-Mar-22 02:33N 35°27' E 139°39'0 0.0
2017-Mar-22 01:33N 35°27' E 139°39'0 0.0
2017-Mar-22 00:33N 35°27' E 139°39'0 0.0
2017-Mar-21 23:33N 35°27' E 139°39'0 0.0
2017-Mar-21 22:33N 35°27' E 139°39'0 0.0
2017-Mar-20 23:11N 35°27' E 139°39'710.3
2017-Mar-20 22:33N 35°30' E 139°46'2 2.5
2017-Mar-20 21:33N 35°29' E 139°43'3 2.7
2017-Mar-20 20:33N 35°27' E 139°42'2 1.7
2017-Mar-20 19:33N 35°27' E 139°40'0 0.0
2017-Mar-20 18:33N 35°27' E 139°40'0 0.0
2017-Mar-20 17:33N 35°27' E 139°40'0 0.0
2017-Mar-20 16:33N 35°27' E 139°40'0 0.0
2017-Mar-20 15:33N 35°27' E 139°40'1 1.2
2017-Mar-20 14:33N 35°26' E 139°41'2 2.1
2017-Mar-20 13:33N 35°27' E 139°39'0 0.0
2017-Mar-20 12:33N 35°27' E 139°39'0 0.0
2017-Mar-20 11:33N 35°27' E 139°39'0 0.0
2017-Mar-20 10:33N 35°27' E 139°39'2 2.1
2017-Mar-20 09:33N 35°27' E 139°41'1 0.8
2017-Mar-20 08:33N 35°27' E 139°42'1 0.7
2017-Mar-20 07:33N 35°28' E 139°42'2 1.9
2017-Mar-20 06:33N 35°27' E 139°40'0 0.0
2017-Mar-20 05:33N 35°27' E 139°40'0 0.0
2017-Mar-20 04:33N 35°27' E 139°40'0 0.0
2017-Mar-20 03:33N 35°27' E 139°40'0 0.0
2017-Mar-20 02:33N 35°27' E 139°40'1 1.0
2017-Mar-20 01:33N 35°27' E 139°39'1 1.4
2017-Mar-20 00:33N 35°28' E 139°40'3 2.7
2017-Mar-19 23:34N 35°27' E 139°43'2 2.5
2017-Mar-19 22:33N 35°27' E 139°40'  
Track history (hours):
 
Tides and Currents Weather Stations Pressure Air Temp Water Temp Dewpoint Dewpoint Depression Visibility Wind Speed Wind Dir Waves Ship Positions

Sakura

Last reported at 2017-Mar-29 01:33 UTC. Time now 2017-Mar-29 01:34 UTC.
Position N 35°23' E 139°41'.

Length 32 m; draft 3.6 m.

Type: Tug. MMSI: 431101178.

Date/timePositionNaut miles runAvg speedWind from/ knotsBaromVisibWave heightAir tempDewpointWater temp
2017-Mar-29 01:33N 35°23' E 139°41'1 0.5
2017-Mar-29 00:33N 35°23' E 139°41'0 0.0
2017-Mar-28 23:33N 35°23' E 139°41'1 1.3
2017-Mar-28 22:33N 35°24' E 139°41'3 3.3
2017-Mar-28 21:33N 35°27' E 139°40'2 1.5
2017-Mar-28 20:33N 35°27' E 139°39'0 0.0
2017-Mar-28 08:28N 35°27' E 139°39'8 8.3
2017-Mar-28 07:33N 35°30' E 139°47'6 6.4
2017-Mar-28 06:33N 35°28' E 139°40'1 1.1
2017-Mar-28 05:33N 35°27' E 139°39'0 0.0
2017-Mar-28 04:33N 35°27' E 139°39'0 0.0
2017-Mar-28 03:33N 35°27' E 139°39'0 0.0
2017-Mar-28 02:33N 35°27' E 139°39'0 0.0
2017-Mar-28 01:33N 35°27' E 139°39'4 4.1
2017-Mar-28 00:33N 35°23' E 139°40'2 2.3
2017-Mar-27 23:33N 35°24' E 139°38'4 3.8
2017-Mar-27 22:33N 35°25' E 139°42'1 1.0
2017-Mar-27 21:33N 35°25' E 139°43'4 3.9
2017-Mar-27 20:33N 35°27' E 139°39'0 0.0
2017-Mar-27 19:33N 35°27' E 139°39'3 0.2
2017-Mar-27 07:34N 35°28' E 139°42'1 1.3
2017-Mar-27 06:34N 35°27' E 139°41'1 0.7
2017-Mar-27 05:34N 35°27' E 139°42'1 0.9
2017-Mar-27 04:33N 35°28' E 139°42'2 1.7
2017-Mar-27 03:33N 35°27' E 139°40'0 0.1
2017-Mar-27 02:34N 35°28' E 139°41'0 0.0
2017-Mar-27 01:33N 35°28' E 139°41'0 0.0
2017-Mar-27 00:34N 35°28' E 139°41'6 6.1
2017-Mar-26 23:33N 35°30' E 139°47'7 6.9
2017-Mar-26 22:33N 35°27' E 139°40'1 0.8
2017-Mar-26 21:33N 35°27' E 139°39'0 0.0
2017-Mar-25 23:33N 35°27' E 139°39'0 0.0
2017-Mar-25 22:33N 35°27' E 139°39'0 0.0
2017-Mar-25 21:33N 35°27' E 139°39'0 0.0
2017-Mar-25 20:33N 35°27' E 139°39'3 2.8
2017-Mar-25 19:33N 35°26' E 139°42'2 2.0
2017-Mar-25 18:33N 35°24' E 139°41'0 0.2
2017-Mar-25 17:33N 35°24' E 139°41'1 0.7
2017-Mar-25 16:33N 35°24' E 139°40'2 1.9
2017-Mar-25 15:33N 35°22' E 139°42'1 1.1
2017-Mar-25 14:33N 35°23' E 139°41'0 0.0
2017-Mar-25 13:33N 35°23' E 139°41'0 0.0
2017-Mar-25 12:33N 35°23' E 139°41'4 3.8
2017-Mar-25 11:33N 35°27' E 139°41'1 1.0
2017-Mar-25 10:33N 35°28' E 139°41'1 0.9
2017-Mar-25 09:33N 35°27' E 139°40'0 0.1
2017-Mar-25 08:33N 35°27' E 139°40'1 1.2
2017-Mar-25 07:33N 35°27' E 139°42'1 1.1
2017-Mar-25 06:33N 35°26' E 139°41'2 2.1
2017-Mar-25 05:33N 35°27' E 139°39'0 0.0
2017-Mar-25 04:33N 35°27' E 139°39'0 0.0
2017-Mar-25 03:33N 35°27' E 139°39'0 0.0
2017-Mar-25 02:33N 35°27' E 139°39'0 0.0
2017-Mar-25 01:33N 35°27' E 139°39'0 0.0
2017-Mar-25 00:33N 35°27' E 139°39'0 0.0
2017-Mar-24 23:33N 35°27' E 139°39'0 0.0
2017-Mar-24 22:33N 35°27' E 139°39'0 0.0
2017-Mar-24 21:33N 35°27' E 139°39'0 0.0
2017-Mar-24 07:28N 35°27' E 139°39'7 7.7
2017-Mar-24 06:33N 35°31' E 139°46'1 1.1
2017-Mar-24 05:33N 35°30' E 139°45'2 1.7
2017-Mar-24 04:33N 35°29' E 139°45'2 1.5
2017-Mar-24 03:33N 35°29' E 139°47'0 0.0
2017-Mar-24 02:33N 35°29' E 139°47'0 0.0
2017-Mar-24 01:33N 35°29' E 139°47'0 0.0
2017-Mar-24 00:33N 35°29' E 139°47'2 1.9
2017-Mar-23 23:33N 35°31' E 139°46'4 4.3
2017-Mar-23 22:33N 35°28' E 139°42'3 3.0
2017-Mar-23 21:33N 35°27' E 139°39'0 0.0
2017-Mar-23 07:10N 35°27' E 139°39'0 0.0
2017-Mar-23 06:33N 35°27' E 139°39'1 0.7
2017-Mar-23 05:33N 35°27' E 139°39'5 5.1
2017-Mar-23 04:33N 35°30' E 139°44'1 0.8
2017-Mar-23 03:33N 35°30' E 139°45'3 2.9
2017-Mar-23 02:33N 35°28' E 139°44'0 0.2
2017-Mar-23 01:33N 35°28' E 139°44'0 0.0
2017-Mar-23 00:33N 35°28' E 139°44'0 0.0
2017-Mar-22 23:33N 35°28' E 139°44'3 2.6
2017-Mar-22 22:33N 35°29' E 139°47'2 2.0
2017-Mar-22 21:33N 35°30' E 139°44'5 5.2
2017-Mar-22 20:33N 35°27' E 139°39'0 0.0
2017-Mar-22 11:03N 35°27' E 139°39'3 5.3
2017-Mar-22 10:33N 35°26' E 139°41'0 0.4
2017-Mar-22 09:33N 35°26' E 139°42'0 0.0
2017-Mar-22 08:33N 35°26' E 139°41'0 0.0
2017-Mar-22 07:33N 35°26' E 139°41'1 0.8
2017-Mar-22 06:33N 35°26' E 139°41'2 2.1
2017-Mar-22 05:33N 35°27' E 139°39'0 0.0
2017-Mar-22 04:33N 35°27' E 139°39'0 0.0
2017-Mar-22 03:33N 35°27' E 139°39'0 0.0
2017-Mar-22 02:33N 35°27' E 139°39'0 0.0
2017-Mar-22 01:33N 35°27' E 139°39'0 0.0
2017-Mar-22 00:33N 35°27' E 139°39'0 0.0
2017-Mar-21 23:33N 35°27' E 139°39'0 0.0
2017-Mar-21 22:33N 35°27' E 139°39'0 0.0
2017-Mar-20 23:11N 35°27' E 139°39'710.3
2017-Mar-20 22:33N 35°30' E 139°46'2 2.5
2017-Mar-20 21:33N 35°29' E 139°43'3 2.7
2017-Mar-20 20:33N 35°27' E 139°42'2 1.7
2017-Mar-20 19:33N 35°27' E 139°40'0 0.0
2017-Mar-20 18:33N 35°27' E 139°40'0 0.0
2017-Mar-20 17:33N 35°27' E 139°40'0 0.0
2017-Mar-20 16:33N 35°27' E 139°40'0 0.0
2017-Mar-20 15:33N 35°27' E 139°40'1 1.2
2017-Mar-20 14:33N 35°26' E 139°41'2 2.1
2017-Mar-20 13:33N 35°27' E 139°39'0 0.0
2017-Mar-20 12:33N 35°27' E 139°39'0 0.0
2017-Mar-20 11:33N 35°27' E 139°39'0 0.0
2017-Mar-20 10:33N 35°27' E 139°39'2 2.1
2017-Mar-20 09:33N 35°27' E 139°41'1 0.8
2017-Mar-20 08:33N 35°27' E 139°42'1 0.7
2017-Mar-20 07:33N 35°28' E 139°42'2 1.9
2017-Mar-20 06:33N 35°27' E 139°40'0 0.0
2017-Mar-20 05:33N 35°27' E 139°40'0 0.0
2017-Mar-20 04:33N 35°27' E 139°40'0 0.0
2017-Mar-20 03:33N 35°27' E 139°40'0 0.0
2017-Mar-20 02:33N 35°27' E 139°40'1 1.0
2017-Mar-20 01:33N 35°27' E 139°39'1 1.4
2017-Mar-20 00:33N 35°28' E 139°40'3 2.7
2017-Mar-19 23:34N 35°27' E 139°43'2 2.5
2017-Mar-19 22:33N 35°27' E 139°40'  

Dump ship's entire track history